• Join FlightAware (Why Join?)
  • Login
  • US Flag 
09:50AM EDT


 

Airport Tracker/Info


-or-


 

Live Flight TrackerFlight Track Log ✈ SWA1035 ✈ 03-May-2013 ✈ KABQ - KPDX

Flight Track Log - Related Links

Times and Time Zones

All times are in EDT time to prevent confusion due to time zone crossing. See the SWA1035 flight status page for this flight to view local times or setup timezone preferences in your user account.

Time Position Orientation Groundspeed Altitude Reporting Facility
EDT Latitude Longitude Course Direction KTS MPH feet Rate Location/Type
04:52PM 35.0439 -106.5817 95° East 173 199 6,000  Level Albuquerque Center
04:52PM 35.0425 -106.5614 95° East 167 192 6,800 1,740 Climbing Albuquerque Center
04:53PM 35.0608 -106.5144 64° Northeast 247 284 7,900 1,740 Climbing Albuquerque Center
04:54PM 35.1194 -106.5578 329° Northwest 271 312 9,800 2,700 Climbing Albuquerque Center
04:55PM 35.1708 -106.6297 311° West 283 326 13,600 3,420 Climbing Albuquerque Center
04:56PM 35.2256 -106.7006 313° West 288 331 16,900 2,100 Climbing Albuquerque Center
04:57PM 35.3078 -106.7533 332° Northwest 345 397 18,000 2,160 Climbing Albuquerque Center
04:58PM 35.4217 -106.8119 337° Northwest 368 423 21,400 2,760 Climbing Albuquerque Center
04:59PM 35.5206 -106.8633 337° Northwest 381 438 23,800 2,100 Climbing Albuquerque Center
05:00PM 35.6228 -106.9158 337° Northwest 393 452 25,800 1,980 Climbing Albuquerque Center
05:01PM 35.7417 -106.9792 337° Northwest 408 470 28,000 1,800 Climbing Albuquerque Center
05:02PM 35.8464 -107.0336 337° Northwest 421 484 29,600 1,680 Climbing Albuquerque Center
05:03PM 35.9456 -107.0864 337° Northwest 424 488 31,500 2,100 Climbing Albuquerque Center
05:04PM 36.0744 -107.1531 337° Northwest 419 482 34,000 1,920 Climbing Albuquerque Center
05:05PM 36.1703 -107.2025 337° Northwest 411 473 35,500 960 Climbing Albuquerque Center
05:06PM 36.2858 -107.2650 336° Northwest 407 468 36,000 360 Climbing Albuquerque Center
05:07PM 36.3842 -107.3178 337° Northwest 404 465 36,300 780 Climbing Albuquerque Center
05:08PM 36.4500 -107.3514 338° Northwest 403 464 37,200 1,080 Climbing Denver Center
05:09PM 36.5469 -107.4031 337° Northwest 398 458 38,000 360 Climbing Denver Center
05:10PM 36.6636 -107.4656 337° Northwest 406 467 38,000  Level Denver Center
05:11PM 36.7622 -107.5181 337° Northwest 405 466 38,000  Level Denver Center
05:12PM 36.8589 -107.5711 336° Northwest 400 460 38,000  Level Denver Center
05:13PM 36.9728 -107.6328 337° Northwest 398 458 38,000  Level Denver Center
05:14PM 37.0708 -107.6856 337° Northwest 400 460 38,000  Level Denver Center
05:15PM 37.1844 -107.7472 337° Northwest 398 458 38,000  Level Denver Center
05:16PM 37.2811 -107.8000 337° Northwest 397 457 38,000  Level Denver Center
05:17PM 37.3950 -107.8617 337° Northwest 398 458 38,000  Level Denver Center
05:18PM 37.4897 -107.9156 336° Northwest 394 453 38,000  Level Denver Center
05:19PM 37.5981 -107.9789 335° Northwest 388 447 38,000  Level Denver Center
05:20PM 37.6736 -108.0694 317° Northwest 389 448 38,000  Level Denver Center
05:21PM 37.7608 -108.1742 317° Northwest 388 447 38,000  Level Denver Center
05:22PM 37.8347 -108.2667 315° West 391 450 38,000  Level Denver Center
05:23PM 37.9228 -108.3761 316° Northwest 392 451 38,000  Level Denver Center
05:24PM 37.9975 -108.4667 316° Northwest 390 449 38,000  Level Denver Center
05:25PM 38.0744 -108.5578 317° Northwest 389 448 38,000  Level Denver Center
05:26PM 38.1622 -108.6658 316° Northwest 392 451 38,000  Level Denver Center
05:27PM 38.2375 -108.7592 316° Northwest 393 452 38,000  Level Denver Center
05:28PM 38.3258 -108.8703 315° West 397 457 38,000  Level Denver Center
05:29PM 38.4017 -108.9639 316° Northwest 396 456 38,000 300 Level Denver Center
05:30PM 38.4894 -109.0728 316° Northwest 394 453 38,700 780 Climbing Denver Center
05:31PM 38.5644 -109.1664 316° Northwest 391 450 39,700 600 Climbing Denver Center
05:32PM 38.6394 -109.2614 315° West 395 455 40,000 120 Climbing Denver Center
05:33PM 38.7258 -109.3708 315° West 390 449 40,000  Level Denver Center
05:34PM 38.8006 -109.4647 316° Northwest 392 451 40,000  Level Denver Center
05:35PM 38.8861 -109.5747 315° West 392 451 40,000  Level Denver Center
05:36PM 38.9603 -109.6681 316° Northwest 391 450 40,000  Level Denver Center
05:37PM 39.0456 -109.7769 315° West 387 445 40,000  Level Denver Center
05:39PM 39.1175 -109.8700 315° West 384 442 40,000  Level Denver Center
05:39PM 39.1544 -109.9178 315° West 385 443 40,000  Level Salt Lake Center
05:40PM 39.2278 -110.0125 315° West 386 444 40,000  Level Salt Lake Center
05:41PM 39.3128 -110.1222 315° West 384 442 40,000  Level Salt Lake Center
05:42PM 39.3864 -110.2161 315° West 389 448 40,000  Level Salt Lake Center
05:43PM 39.4333 -110.2794 314° West 385 443 40,000  Level Denver Center
05:44PM 39.5078 -110.3742 316° Northwest 388 447 40,000  Level Denver Center
05:44PM 39.5453 -110.4239 314° West 393 452 40,000  Level Salt Lake Center
05:45PM 39.6189 -110.5206 315° West 393 452 40,000  Level Salt Lake Center
05:46PM 39.7042 -110.6339 314° West 393 452 40,000  Level Salt Lake Center
05:47PM 39.7794 -110.7317 315° West 396 456 40,000  Level Salt Lake Center
05:48PM 39.8658 -110.8467 314° West 398 458 40,000  Level Salt Lake Center
05:49PM 39.9397 -110.9450 314° West 398 458 40,000  Level Salt Lake Center
05:50PM 40.0222 -111.0636 312° West 395 455 40,000  Level Salt Lake Center
05:51PM 40.0839 -111.1658 308° West 402 463 40,000  Level Salt Lake Center
05:52PM 40.1550 -111.2817 309° West 408 470 40,000  Level Salt Lake Center
05:53PM 40.2403 -111.4208 309° West 407 468 40,000  Level Salt Lake Center
05:54PM 40.3111 -111.5381 308° West 410 472 40,000  Level Salt Lake Center
05:55PM 40.3822 -111.6556 308° West 412 474 40,000  Level Salt Lake Center
05:56PM 40.4533 -111.7728 309° West 410 472 40,000  Level Salt Lake Center
05:57PM 40.5219 -111.8886 308° West 401 461 40,000  Level Salt Lake Center
05:59PM 40.5911 -112.0050 308° West 401 461 40,000  Level Salt Lake Center
06:00PM 40.6603 -112.1214 308° West 401 461 40,000  Level Salt Lake Center
06:01PM 40.7294 -112.2383 308° West 402 463 40,000  Level Salt Lake Center
06:02PM 40.8000 -112.3564 308° West 408 470 40,000  Level Salt Lake Center
06:03PM 40.8856 -112.4978 309° West 409 471 40,000  Level Salt Lake Center
06:04PM 40.9572 -112.6175 308° West 414 476 40,000  Level Salt Lake Center
06:05PM 41.0297 -112.7372 309° West 418 481 40,000  Level Salt Lake Center
06:06PM 41.1014 -112.8578 308° West 418 481 40,000  Level Salt Lake Center
06:07PM 41.1731 -112.9783 308° West 416 479 40,000  Level Salt Lake Center
06:08PM 41.2447 -113.1006 308° West 418 481 40,000  Level Salt Lake Center
06:09PM 41.3139 -113.2192 308° West 408 470 40,000  Level Salt Lake Center
06:10PM 41.3831 -113.3403 307° West 411 473 40,000  Level Salt Lake Center
06:11PM 41.4542 -113.4606 308° West 413 475 40,000  Level Salt Lake Center
06:12PM 41.5392 -113.6058 308° West 413 475 40,000  Level Salt Lake Center
06:13PM 41.6089 -113.7278 307° West 413 475 40,000  Level Salt Lake Center
06:14PM 41.6800 -113.8481 308° West 412 474 40,000  Level Salt Lake Center
06:15PM 41.7503 -113.9700 308° West 415 478 40,000  Level Salt Lake Center
06:16PM 41.8197 -114.0908 308° West 412 474 40,000  Level Salt Lake Center
06:17PM 41.8872 -114.2114 307° West 407 468 40,000  Level Salt Lake Center
06:18PM 41.9553 -114.3306 308° West 404 465 40,000  Level Salt Lake Center
06:19PM 42.0244 -114.4511 308° West 405 466 40,000  Level Salt Lake Center
06:20PM 42.1061 -114.5969 307° West 423 487 40,000  Level Salt Lake Center
06:21PM 42.1769 -114.7197 308° West 402 463 40,000  Level Salt Lake Center
06:22PM 42.2447 -114.8417 307° West 405 466 40,000  Level Salt Lake Center
06:23PM 42.3158 -114.9750 306° West 408 470 40,000  Level Salt Lake Center
06:24PM 42.3808 -115.0917 307° West 404 465 40,000  Level Salt Lake Center
06:25PM 42.4458 -115.2103 307° West 409 471 40,000  Level Salt Lake Center
06:26PM 42.5214 -115.3481 307° West 409 471 40,000  Level Salt Lake Center
06:27PM 42.5861 -115.4661 307° West 407 468 40,000  Level Salt Lake Center
06:28PM 42.6628 -115.6069 307° West 412 474 40,000  Level Salt Lake Center
06:29PM 42.7281 -115.7281 306° West 413 475 40,000  Level Salt Lake Center
06:30PM 42.7942 -115.8500 306° West 418 481 40,000  Level Salt Lake Center
06:31PM 42.8694 -115.9925 306° West 417 480 40,000  Level Salt Lake Center
06:32PM 42.9358 -116.1142 307° West 417 480 40,000  Level Salt Lake Center
06:33PM 43.0122 -116.2575 306° West 416 479 40,000  Level Salt Lake Center
06:34PM 43.0769 -116.3814 306° West 418 481 40,000  Level Salt Lake Center
06:35PM 43.1525 -116.5244 306° West 415 478 40,000  Level Salt Lake Center
06:36PM 43.2172 -116.6469 306° West 413 475 40,000  Level Salt Lake Center
06:38PM 43.2811 -116.7694 306° West 413 475 40,000  Level Salt Lake Center
06:39PM 43.3556 -116.9133 305° West 413 475 40,000  Level Salt Lake Center
06:40PM 43.4192 -117.0364 305° West 412 474 40,000  Level Salt Lake Center
06:41PM 43.4939 -117.1797 306° West 411 473 40,000  Level Salt Lake Center
06:42PM 43.5572 -117.3028 305° West 412 474 40,000  Level Salt Lake Center
06:43PM 43.6203 -117.4275 305° West 411 473 40,000  Level Salt Lake Center
06:44PM 43.6950 -117.5733 305° West 416 479 40,000  Level Salt Lake Center
06:45PM 43.7583 -117.6986 305° West 414 476 40,000  Level Salt Lake Center
06:46PM 43.8325 -117.8464 305° West 419 482 40,000  Level Salt Lake Center
06:47PM 43.8967 -117.9722 305° West 419 482 40,000  Level Salt Lake Center
06:49PM 44.0250 -118.2267 305° West 421 484 40,000  Level Seattle Center
06:50PM 44.0856 -118.3553 303° West 418 481 40,000  Level Seattle Center
06:51PM 44.1508 -118.4858 305° West 417 480 40,000  Level Seattle Center
06:52PM 44.2167 -118.6206 304° West 421 484 40,000  Level Seattle Center
06:53PM 44.2819 -118.7547 304° West 419 482 40,000  Level Seattle Center
06:54PM 44.3478 -118.8881 305° West 419 482 40,000  Level Seattle Center
06:55PM 44.4153 -119.0222 305° West 423 487 40,000  Level Seattle Center
06:56PM 44.4950 -119.1886 304° West 429 494 40,000  Level Seattle Center
06:57PM 44.5600 -119.3256 304° West 425 489 40,000  Level Seattle Center
06:58PM 44.6242 -119.4600 304° West 417 480 40,000  Level Seattle Center
06:59PM 44.6875 -119.5950 303° West 414 476 40,000  Level Seattle Center
07:00PM 44.7528 -119.7311 304° West 418 481 40,000  Level Seattle Center
07:01PM 44.8161 -119.8681 303° West 417 480 40,000  Level Seattle Center
07:02PM 44.8781 -119.9981 304° West 421 484 40,000 -240 Level Seattle Center
07:03PM 44.9489 -120.1533 303° West 423 487 39,600 -1,380 Descending Seattle Center
07:04PM 45.0117 -120.2889 303° West 412 474 37,200 -2,580 Descending Seattle Center
07:05PM 45.0731 -120.4211 303° West 403 464 34,400 -2,940 Descending Seattle Center
07:06PM 45.1364 -120.5597 303° West 414 476 31,300 -2,760 Descending Seattle Center
07:07PM 45.1975 -120.6936 303° West 408 470 28,900 -2,220 Descending Seattle Center
07:08PM 45.2556 -120.8219 303° West 390 449 26,900 -2,040 Descending Seattle Center
07:09PM 45.3100 -120.9431 303° West 366 421 24,800 -2,160 Descending Seattle Center
07:10PM 45.3647 -121.0622 303° West 361 415 22,600 -2,100 Descending Seattle Center
07:11PM 45.4164 -121.1797 302° West 353 406 20,500 -2,100 Descending Seattle Center
07:12PM 45.4417 -121.3139 285° West 354 407 18,400 -1,800 Descending Seattle Center
07:13PM 45.4597 -121.4461 281° West 351 404 17,400 -1,380 Descending Seattle Center
07:13PM 45.4614 -121.4747 275° West 342 394 17,000 -1,440 Descending Seattle Center
07:13PM 45.4692 -121.5319 281° West 316 364 16,400 -1,620 Descending Seattle Center
07:14PM 45.4806 -121.5919 285° West 309 356 15,400 -1,920 Descending Seattle Center
07:14PM 45.5197 -121.6061 346° North 278 320 14,500 -1,680 Descending Seattle Center
07:15PM 45.5600 -121.6206 346° North 282 325 13,700 -1,500 Descending Seattle Center
07:16PM 45.5961 -121.6383 341° North 284 327 13,000 -1,500 Descending Seattle Center
07:16PM 45.6336 -121.6583 340° North 278 320 12,200 -1,500 Descending Seattle Center
07:17PM 45.6439 -121.7108 286° West 285 328 11,500 -1,320 Descending Seattle Center
07:17PM 45.6181 -121.7653 236° Southwest 313 360 10,900 -1,020 Descending Seattle Center
07:18PM 45.5944 -121.8064 231° Southwest 313 360 10,500 -1,380 Descending Seattle Center
07:18PM 45.5808 -121.8661 252° West 306 352 9,500 -1,620 Descending Seattle Center
07:19PM 45.5744 -121.9200 260° West 299 344 8,900 -1,680 Descending Seattle Center
07:19PM 45.5625 -121.9950 257° West 300 345 7,800 -1,620 Descending Seattle Center
07:20PM 45.5578 -122.0478 263° West 300 345 7,300 -900 Descending Seattle Center
07:20PM 45.5472 -122.1083 256° West 293 337 6,900 -720 Descending Seattle Center
07:21PM 45.5425 -122.1528 261° West 253 291 6,600 -1,140 Descending Seattle Center
07:21PM 45.5375 -122.2097 263° West 268 308 5,800 -1,320 Descending Seattle Center
07:22PM 45.5300 -122.2508 255° West 251 289 5,300 -1,680 Descending Seattle Center
07:22PM 45.5250 -122.3067 263° West 255 293 4,100 -1,980 Descending Seattle Center
07:23PM 45.5169 -122.3456 254° West 245 282 3,300 -1,500 Descending Seattle Center
07:23PM 45.5169 -122.3953 270° West 234 269 2,600 -900 Descending Seattle Center
07:24PM 45.5267 -122.4250 295° West 195 224 2,400 -840 Descending Seattle Center
07:24PM 45.5400 -122.4567 301° West 190 219 1,800 -1,020 Descending Seattle Center
07:25PM 45.5481 -122.4778 299° West 141 162 1,400 -840 Descending Seattle Center
07:25PM 45.5600 -122.5061 301° West 168 193 1,000 -600 Descending Seattle Center
07:26PM 45.5658 -122.5231 296° West 125 144 800 -600 Descending Seattle Center
07:26PM 45.5794 -122.5553 301° West 153 176 400 -660 Descending Seattle Center
07:28PM 45.5833 -122.5833 282° West  Level FlightAware Approximate